»·PEaware :: N982CA KVNY-KSAN

N982CA :: KVNY-KSAN

FLIGHT INFORMATION

Flight Status: Arrived
Operator: Privately registered:
United States
More flights under this callsign
Pilot: David C. (25479)
Aircraft: Cessna 525C Citation CJ4
(C25C)
More flights by this aircraft type
Origin: KVNY Van Nuys
United States
Destination: KSAN San Diego Intl-Lindbergh
United States
More flights between these airports :: More routes between these airports
Route: TWINE V518 KIMMO V459 SLI SLI171 LAX118 CARDI MZB320 MZB
File this flight plan on PilotEdge
Remarks:
Altitude:
(Current/Filed)
11,000ft
Speed:
(Current/Filed)
250kts
Departed: 20-Feb-21 02:14 PM
Arrived: 20-Feb-21 02:52 PM
Distance/Time
Traveled:
110nm/0:37
Distance/Time
To Go:
Arrived

Flight Plot

Page will automatically refresh every two minutes.


Map Options




Map Legend


Flown Route
Filed Route
Departure Airport
Arrival Airport
Navaid (VOR, NDB)
Fix

Horizontal Profiles

Position Reports

Time Latitude Longitude Heading Altitude Ground
Speed
20-Feb-21 13:51 34.219822 -118.493357 165 809ft 0kts
20-Feb-21 13:52 34.219822 -118.493357 165 809ft 0kts
20-Feb-21 13:53 34.219822 -118.493357 165 809ft 0kts
20-Feb-21 13:54 34.219822 -118.493357 165 809ft 0kts
20-Feb-21 13:55 34.219822 -118.493357 165 809ft 0kts
20-Feb-21 13:56 34.219822 -118.493357 165 809ft 0kts
20-Feb-21 13:57 34.219822 -118.493357 165 809ft 0kts
20-Feb-21 13:58 34.219822 -118.493357 165 809ft 0kts
20-Feb-21 13:59 34.219822 -118.493357 165 809ft 0kts
20-Feb-21 14:00 34.219822 -118.493357 165 809ft 0kts
20-Feb-21 14:01 34.219822 -118.493357 165 809ft 0kts
20-Feb-21 14:02 34.219822 -118.493357 165 809ft 0kts
20-Feb-21 14:03 34.219822 -118.493357 165 809ft 0kts
20-Feb-21 14:04 34.219822 -118.493357 165 809ft 0kts
20-Feb-21 14:05 34.219720 -118.493326 165 808ft 9kts
20-Feb-21 14:06 34.215063 -118.492115 173 790ft 22kts
20-Feb-21 14:07 34.209103 -118.491488 175 785ft 12kts
20-Feb-21 14:08 34.204732 -118.491148 180 770ft 14kts
20-Feb-21 14:09 34.199167 -118.490211 176 751ft 18kts
20-Feb-21 14:10 34.197076 -118.489964 90 748ft 0kts
20-Feb-21 14:11 34.197076 -118.489964 90 748ft 0kts
20-Feb-21 14:12 34.198035 -118.489425 1 751ft 25kts
20-Feb-21 14:14 34.234419 -118.492224 355 2450ft 180kts
20-Feb-21 14:15 34.224013 -118.539066 260 3898ft 189kts
20-Feb-21 14:16 34.213594 -118.604720 262 5074ft 181kts
20-Feb-21 14:17 34.241494 -118.639093 351 7077ft 187kts
20-Feb-21 14:18 34.290329 -118.649371 354 8980ft 194kts
20-Feb-21 14:19 34.346181 -118.657684 354 10747ft 212kts
20-Feb-21 14:20 34.412267 -118.666702 354 11032ft 258kts
20-Feb-21 14:21 34.443520 -118.601061 98 11020ft 300kts
20-Feb-21 14:22 34.401734 -118.511365 123 11040ft 314kts
20-Feb-21 14:23 34.333223 -118.443796 139 11020ft 322kts
20-Feb-21 14:24 34.263713 -118.375420 137 11032ft 322kts
20-Feb-21 14:25 34.194087 -118.306627 137 10983ft 325kts
20-Feb-21 14:26 34.119459 -118.245898 153 10984ft 329kts
20-Feb-21 14:27 34.036640 -118.200480 152 10976ft 331kts
20-Feb-21 14:28 33.954135 -118.152623 152 10971ft 331kts
20-Feb-21 14:29 33.871319 -118.104876 151 10989ft 332kts
20-Feb-21 14:30 33.788085 -118.057957 161 10995ft 334kts
20-Feb-21 14:31 33.696648 -118.059440 189 11003ft 336kts
20-Feb-21 14:32 33.605469 -118.056028 143 11000ft 333kts
20-Feb-21 14:33 33.546257 -117.973510 122 10977ft 327kts
20-Feb-21 14:33 33.500265 -117.901473 122 10971ft 328kts
20-Feb-21 14:35 33.426039 -117.810508 134 10968ft 332kts
20-Feb-21 14:35 33.375477 -117.742048 126 10973ft 330kts
20-Feb-21 14:37 33.304294 -117.646126 127 10996ft 330kts
20-Feb-21 14:38 33.245101 -117.566817 127 10997ft 331kts
20-Feb-21 14:38 33.194200 -117.498591 127 10992ft 331kts
20-Feb-21 14:39 33.131948 -117.417602 141 10981ft 336kts
20-Feb-21 14:40 33.046290 -117.371439 155 10998ft 339kts
20-Feb-21 14:41 32.964120 -117.325734 153 9719ft 289kts
20-Feb-21 14:43 32.881620 -117.280431 153 7414ft 224kts
20-Feb-21 14:43 32.835564 -117.255032 152 7039ft 222kts
20-Feb-21 14:44 32.782868 -117.226018 153 6992ft 167kts
20-Feb-21 14:45 32.755214 -117.196921 80 5605ft 139kts
20-Feb-21 14:46 32.754750 -117.153281 111 3032ft 143kts
20-Feb-21 14:47 32.742726 -117.112932 112 1576ft 129kts
20-Feb-21 14:48 32.720983 -117.111000 302 1350ft 149kts
20-Feb-21 14:49 32.727411 -117.108008 229 1512ft 146kts
20-Feb-21 14:50 32.728344 -117.158551 281 662ft 153kts
20-Feb-21 14:51 32.733811 -117.190555 298 15ft 22kts
20-Feb-21 14:52 32.734728 -117.190593 53 12ft 0kts
20-Feb-21 14:53 32.733769 -117.185621 106 15ft 19kts
20-Feb-21 14:54 32.732911 -117.179052 92 14ft 16kts
20-Feb-21 14:55 32.733938 -117.178672 309 14ft 0kts
20-Feb-21 14:56 32.733938 -117.178672 309 14ft 0kts
20-Feb-21 14:57 32.733938 -117.178672 309 14ft 0kts

Navigation Log

Ident Type
Flight plan parsing failed, navigation log unavailable